Carlisle, Indiana
Current Conditions -  °F | °C
As of 9:35 AM on Tuesday 21 Oct 2014 (Local Time) from KRSV Reporting Station
Haze Haze  
Wind Chill: 49°   Ceiling: 5000
Heat Index: 49°   Visibility: 5mi
Dew Point: 48°   Wind: 0mph
Humidity: 99%   Direction: NA
Pressure: 30.11"   Gusts: NA
Location:  38.97°N, 87.41°W
Report Text: KRSV 211335Z AUTO 00000KT 5SM BR BKN050 09/09 A3011 RMK AO2 T00920090
Loading
Personal Weather Stations






























Interactive Weather Map
Tropical Storm Tracking
New forecast layout! Learn more

10-Day Weather Forecast

Advertisements
Track Severe Weather on mobile